createdAt,value
2018-03-27T00:01:45.983Z,37.87
2018-03-27T00:04:14.867Z,39.20
2018-03-27T00:06:43.999Z,37.97
2018-03-27T00:09:14.593Z,41.30
2018-03-27T00:11:43.553Z,41.60
2018-03-27T00:14:12.595Z,41.50
2018-03-27T00:16:41.803Z,41.97
2018-03-27T00:19:11.139Z,45.53
2018-03-27T00:21:42.826Z,47.00
2018-03-27T00:24:12.570Z,40.80
2018-03-27T00:26:50.277Z,43.20
2018-03-27T00:29:30.800Z,44.57
2018-03-27T00:32:11.243Z,45.07
2018-03-27T00:34:51.338Z,45.17
2018-03-27T00:37:31.637Z,44.87
2018-03-27T00:40:12.397Z,47.30
2018-03-27T00:42:41.761Z,48.30
2018-03-27T00:45:11.289Z,45.67
2018-03-27T00:47:40.582Z,52.87
2018-03-27T00:50:09.644Z,50.17
2018-03-27T00:52:38.592Z,48.53
2018-03-27T00:55:07.821Z,43.77
2018-03-27T00:57:36.830Z,44.67
2018-03-27T01:00:06.936Z,45.40
2018-03-27T01:02:36.243Z,42.07
2018-03-27T01:05:09.587Z,39.83
2018-03-27T01:07:38.633Z,43.43
2018-03-27T01:10:07.858Z,41.73
2018-03-27T01:12:36.809Z,40.77
2018-03-27T01:15:05.947Z,41.60
2018-03-27T01:17:37.066Z,41.63
2018-03-27T01:20:07.007Z,39.47
2018-03-27T01:22:36.045Z,42.00
2018-03-27T01:25:05.341Z,41.80
2018-03-27T01:27:34.551Z,43.27
2018-03-27T01:30:04.720Z,43.70
2018-03-27T01:32:34.030Z,41.37
2018-03-27T01:35:03.232Z,41.90
2018-03-27T01:37:32.155Z,40.53
2018-03-27T01:40:03.734Z,45.10
2018-03-27T01:42:32.677Z,44.17
2018-03-27T01:45:02.348Z,40.93
2018-03-27T01:47:31.544Z,43.70
2018-03-27T01:50:00.480Z,39.77
2018-03-27T01:52:29.438Z,42.43
2018-03-27T01:54:58.334Z,41.90
2018-03-27T01:57:27.270Z,43.37
2018-03-27T01:59:56.519Z,45.20
2018-03-27T02:02:25.507Z,45.20
2018-03-27T02:04:54.578Z,49.87
2018-03-27T02:07:23.838Z,41.93
2018-03-27T02:09:52.808Z,46.20
2018-03-27T02:12:26.855Z,43.40
2018-03-27T02:15:01.607Z,46.17
2018-03-27T02:17:35.954Z,42.60
2018-03-27T02:20:11.696Z,44.70
2018-03-27T02:22:40.932Z,48.13
2018-03-27T02:25:09.968Z,45.83
2018-03-27T02:27:39.260Z,43.97
2018-03-27T02:30:08.214Z,44.87
2018-03-27T02:32:37.223Z,46.90
2018-03-27T02:35:06.459Z,46.57
2018-03-27T02:37:35.383Z,44.60
2018-03-27T02:40:05.673Z,45.63
2018-03-27T02:42:35.590Z,44.43
2018-03-27T02:45:05.246Z,46.50
2018-03-27T02:47:34.297Z,43.33
2018-03-27T02:50:04.729Z,40.50
2018-03-27T02:52:33.706Z,42.33
2018-03-27T02:55:03.083Z,39.60
2018-03-27T02:57:33.063Z,40.00
2018-03-27T03:00:02.842Z,38.47
2018-03-27T03:02:31.838Z,35.20
2018-03-27T03:05:01.451Z,39.20
2018-03-27T03:07:30.782Z,38.73
2018-03-27T03:09:59.832Z,38.87
2018-03-27T03:12:29.156Z,35.63
2018-03-27T03:14:58.111Z,34.33
2018-03-27T03:17:27.086Z,31.63
2018-03-27T03:19:56.002Z,30.90
2018-03-27T03:22:24.895Z,31.00
2018-03-27T03:24:54.206Z,28.90
2018-03-27T03:27:23.175Z,29.40
2018-03-27T03:29:52.138Z,34.13
2018-03-27T03:32:21.511Z,27.43
2018-03-27T03:34:50.506Z,29.63
2018-03-27T03:37:19.501Z,30.87
2018-03-27T03:39:48.815Z,32.30
2018-03-27T03:42:17.879Z,34.83
2018-03-27T03:44:46.902Z,34.63
2018-03-27T03:47:15.892Z,34.17
2018-03-27T03:49:44.892Z,32.50
2018-03-27T03:52:14.337Z,35.43
2018-03-27T03:54:43.630Z,38.87
2018-03-27T03:57:12.787Z,37.47
2018-03-27T03:59:41.639Z,37.90
2018-03-27T04:02:10.806Z,40.00
2018-03-27T04:04:39.760Z,40.90
2018-03-27T04:07:09.006Z,38.13
2018-03-27T04:09:38.364Z,41.13
2018-03-27T04:12:07.384Z,39.60
2018-03-27T04:14:36.654Z,39.90
2018-03-27T04:17:05.633Z,39.77
2018-03-27T04:19:34.621Z,43.03
2018-03-27T04:22:06.196Z,41.90
2018-03-27T04:24:35.786Z,41.33
2018-03-27T04:27:05.794Z,44.60
2018-03-27T04:29:34.757Z,46.20
2018-03-27T04:32:04.825Z,47.50
2018-03-27T04:34:34.124Z,45.00
2018-03-27T04:37:03.938Z,47.90
2018-03-27T04:39:32.887Z,51.13
2018-03-27T04:42:03.009Z,49.67
2018-03-27T04:44:31.966Z,49.17
2018-03-27T04:47:00.981Z,50.50
2018-03-27T04:49:30.373Z,49.10
2018-03-27T04:51:59.328Z,51.13
2018-03-27T04:54:28.233Z,47.80
2018-03-27T04:56:57.460Z,51.67
2018-03-27T04:59:26.778Z,52.27
2018-03-27T05:01:55.844Z,51.30
2018-03-27T05:04:25.160Z,53.40
2018-03-27T05:06:54.153Z,52.50
2018-03-27T05:09:23.139Z,51.47
2018-03-27T05:11:52.174Z,48.90
2018-03-27T05:14:21.172Z,48.33
2018-03-27T05:16:50.488Z,48.00
2018-03-27T05:19:19.374Z,49.57
2018-03-27T05:21:48.380Z,46.53
2018-03-27T05:24:17.612Z,44.60
2018-03-27T05:26:46.550Z,39.57
2018-03-27T05:29:15.829Z,44.33
2018-03-27T05:31:45.116Z,42.73
2018-03-27T05:34:14.109Z,43.47
2018-03-27T05:36:43.073Z,43.27
2018-03-27T05:39:12.499Z,43.53
2018-03-27T05:41:41.500Z,43.97
2018-03-27T05:44:10.580Z,46.30
2018-03-27T05:46:39.776Z,44.50
2018-03-27T05:49:08.740Z,43.20
2018-03-27T05:51:37.610Z,46.53
2018-03-27T05:54:06.590Z,47.40
2018-03-27T05:56:35.582Z,46.57
2018-03-27T05:59:05.849Z,45.30
2018-03-27T06:01:34.752Z,48.47
2018-03-27T06:04:04.589Z,46.40
2018-03-27T06:06:33.922Z,47.20
2018-03-27T06:09:03.141Z,47.97
2018-03-27T06:11:32.167Z,48.00
2018-03-27T06:14:01.440Z,48.13
2018-03-27T06:16:30.490Z,46.90
2018-03-27T06:18:59.567Z,49.07
2018-03-27T06:21:28.892Z,47.10
2018-03-27T06:23:58.046Z,49.20
2018-03-27T06:26:27.051Z,50.67
2018-03-27T06:28:56.299Z,51.40
2018-03-27T06:31:25.384Z,50.87
2018-03-27T06:33:54.338Z,48.43
2018-03-27T06:36:23.237Z,50.50
2018-03-27T06:38:52.228Z,48.47
2018-03-27T06:41:21.427Z,47.53
2018-03-27T06:43:50.416Z,48.70
2018-03-27T06:46:19.995Z,48.50
2018-03-27T06:48:49.209Z,52.17
2018-03-27T06:51:18.220Z,50.90
2018-03-27T06:53:47.165Z,50.10
2018-03-27T06:56:16.426Z,51.37
2018-03-27T06:58:45.411Z,51.20
2018-03-27T07:01:15.925Z,51.97
2018-03-27T07:03:44.904Z,52.20
2018-03-27T07:06:14.449Z,54.90
2018-03-27T07:08:43.475Z,51.70
2018-03-27T07:11:12.700Z,49.67
2018-03-27T07:13:41.663Z,50.57
2018-03-27T07:16:10.748Z,51.70
2018-03-27T07:18:39.746Z,50.53
2018-03-27T07:21:08.686Z,48.37
2018-03-27T07:23:37.979Z,49.67
2018-03-27T07:26:06.949Z,50.10
2018-03-27T07:31:35.859Z,46.93
2018-03-27T07:34:05.949Z,46.60
2018-03-27T07:36:34.906Z,49.40
2018-03-27T07:39:04.903Z,49.80
2018-03-27T07:41:33.887Z,46.73
2018-03-27T07:44:03.302Z,46.97
2018-03-27T07:46:32.263Z,48.77
2018-03-27T07:49:02.120Z,43.40
2018-03-27T07:51:31.790Z,46.50
2018-03-27T07:54:01.035Z,43.60
2018-03-27T07:56:30.187Z,41.60
2018-03-27T07:58:59.337Z,41.43
2018-03-27T08:01:28.422Z,41.90
2018-03-27T08:03:57.375Z,42.13
2018-03-27T08:06:26.575Z,41.97
2018-03-27T08:08:55.489Z,42.40
2018-03-27T08:11:24.337Z,41.40
2018-03-27T08:13:53.663Z,41.77
2018-03-27T08:16:22.611Z,41.40
2018-03-27T08:18:52.130Z,40.50
2018-03-27T08:21:21.384Z,42.33
2018-03-27T08:23:50.974Z,40.67
2018-03-27T08:26:26.411Z,41.97
2018-03-27T08:28:55.472Z,40.67
2018-03-27T08:31:24.488Z,44.70
2018-03-27T08:33:53.807Z,41.67
2018-03-27T08:36:22.971Z,43.47
2018-03-27T08:38:51.918Z,39.70
2018-03-27T08:41:21.741Z,40.93
2018-03-27T08:43:50.888Z,41.10
2018-03-27T08:46:20.038Z,34.80
2018-03-27T08:48:49.479Z,30.50
2018-03-27T08:51:18.469Z,28.03
2018-03-27T08:53:47.412Z,27.40
2018-03-27T08:56:17.081Z,26.90
2018-03-27T08:58:46.147Z,25.93
2018-03-27T09:01:16.011Z,27.47
2018-03-27T09:03:45.293Z,29.17
2018-03-27T09:06:14.291Z,28.40
2018-03-27T09:08:43.941Z,28.77
2018-03-27T09:11:12.898Z,26.00
2018-03-27T09:13:41.867Z,28.17
2018-03-27T09:16:11.336Z,26.27
2018-03-27T09:18:40.328Z,27.77
2018-03-27T09:21:09.275Z,28.00
2018-03-27T09:23:38.817Z,28.87
2018-03-27T09:26:07.814Z,27.00
2018-03-27T09:28:36.871Z,24.20
2018-03-27T09:31:06.213Z,25.27
2018-03-27T09:33:35.275Z,23.23
2018-03-27T09:36:05.350Z,23.17
2018-03-27T09:38:34.621Z,24.80
2018-03-27T09:41:04.536Z,23.90
2018-03-27T09:43:33.451Z,23.00
2018-03-27T09:46:04.620Z,22.53
2018-03-27T09:48:35.802Z,24.20
2018-03-27T09:51:06.035Z,23.30
2018-03-27T09:53:35.138Z,25.23
2018-03-27T09:56:05.505Z,23.57
2018-03-27T09:58:34.812Z,25.07
2018-03-27T10:01:08.016Z,26.23
2018-03-27T10:03:36.941Z,26.30
2018-03-27T10:06:06.583Z,25.83
2018-03-27T10:08:35.563Z,22.83
2018-03-27T10:11:04.719Z,25.77
2018-03-27T10:13:34.071Z,22.97
2018-03-27T10:16:04.881Z,22.33
2018-03-27T10:18:34.310Z,22.27
2018-03-27T10:21:04.759Z,22.70
2018-03-27T10:23:33.746Z,23.00
2018-03-27T10:26:03.497Z,24.70
2018-03-27T10:28:32.658Z,23.93
2018-03-27T10:31:02.681Z,24.00
2018-03-27T10:33:32.766Z,22.17
2018-03-27T10:36:03.936Z,18.90
2018-03-27T10:38:33.145Z,18.57
2018-03-27T10:41:04.665Z,17.97
2018-03-27T10:43:33.643Z,19.20
2018-03-27T10:46:03.782Z,21.23
2018-03-27T10:48:34.135Z,23.70
2018-03-27T10:51:03.681Z,23.90
2018-03-27T10:53:32.803Z,24.97
2018-03-27T10:56:02.955Z,26.30
2018-03-27T10:58:31.836Z,26.83
2018-03-27T11:01:01.010Z,26.60
2018-03-27T11:03:30.272Z,26.10
2018-03-27T11:05:59.195Z,25.90
2018-03-27T11:08:28.259Z,24.20
2018-03-27T11:10:57.647Z,25.60
2018-03-27T11:13:26.588Z,25.20
2018-03-27T11:15:55.643Z,27.23
2018-03-27T11:18:24.638Z,25.57
2018-03-27T11:20:53.816Z,25.27
2018-03-27T11:23:23.165Z,26.60
2018-03-27T11:25:52.207Z,26.60
2018-03-27T11:28:21.224Z,26.63
2018-03-27T11:30:50.702Z,28.47
2018-03-27T11:33:19.711Z,26.57
2018-03-27T11:35:48.791Z,27.53
2018-03-27T11:38:18.120Z,27.03
2018-03-27T11:40:47.015Z,28.83
2018-03-27T11:43:16.011Z,27.93
2018-03-27T11:45:45.208Z,26.47
2018-03-27T11:48:14.300Z,29.47
2018-03-27T11:50:43.280Z,28.40
2018-03-27T11:53:13.205Z,25.07
2018-03-27T11:55:42.361Z,25.90
2018-03-27T11:58:14.073Z,25.73
2018-03-27T12:00:44.177Z,24.80
2018-03-27T12:03:14.531Z,24.60
2018-03-27T12:05:44.567Z,24.67
2018-03-27T12:08:14.099Z,24.10
2018-03-27T12:10:43.199Z,22.97
2018-03-27T12:13:12.833Z,23.43
2018-03-27T12:15:41.805Z,23.23
2018-03-27T12:18:11.089Z,22.20
2018-03-27T12:20:40.913Z,22.33
2018-03-27T12:23:09.954Z,21.00
2018-03-27T12:28:03.851Z,20.33
2018-03-27T12:30:33.365Z,20.97
2018-03-27T12:33:04.102Z,20.87
2018-03-27T12:35:33.619Z,19.60
2018-03-27T12:38:03.403Z,20.03
2018-03-27T12:40:32.463Z,19.50
2018-03-27T12:43:04.336Z,19.50
2018-03-27T12:45:33.278Z,20.40
2018-03-27T12:48:04.421Z,19.30
2018-03-27T12:50:33.696Z,18.63
2018-03-27T12:53:02.666Z,19.00
2018-03-27T12:55:32.314Z,18.67
2018-03-27T12:58:03.183Z,19.27
2018-03-27T13:00:32.626Z,18.80
2018-03-27T13:03:01.588Z,19.40
2018-03-27T13:05:32.394Z,19.07
2018-03-27T13:08:04.630Z,18.20
2018-03-27T13:10:35.047Z,19.73
2018-03-27T13:13:05.255Z,17.27
2018-03-27T13:15:34.560Z,20.30
2018-03-27T13:18:06.355Z,19.20
2018-03-27T13:20:35.274Z,20.47
2018-03-27T13:23:05.224Z,19.20
2018-03-27T13:25:37.013Z,17.60
2018-03-27T13:28:05.935Z,19.50
2018-03-27T13:30:35.541Z,19.67
2018-03-27T13:33:05.654Z,18.60
2018-03-27T13:35:34.537Z,17.10
2018-03-27T13:38:05.483Z,19.40
2018-03-27T13:40:34.700Z,19.90
2018-03-27T13:43:04.667Z,19.77
2018-03-27T13:45:33.579Z,17.63
2018-03-27T13:48:03.938Z,18.40
2018-03-27T13:50:36.448Z,16.90
2018-03-27T13:53:06.160Z,17.07
2018-03-27T13:55:35.408Z,18.13
2018-03-27T13:58:05.268Z,17.80
2018-03-27T14:00:34.452Z,17.63
2018-03-27T14:03:05.479Z,17.23
2018-03-27T14:05:34.803Z,16.80
2018-03-27T14:08:07.219Z,17.87
2018-03-27T14:10:36.517Z,17.13
2018-03-27T14:13:05.919Z,16.43
2018-03-27T14:15:34.848Z,17.33
2018-03-27T14:18:05.895Z,16.13
2018-03-27T14:20:34.846Z,16.70
2018-03-27T14:23:03.978Z,16.40
2018-03-27T14:25:33.561Z,16.87
2018-03-27T14:28:03.589Z,16.57
2018-03-27T14:30:32.478Z,18.03
2018-03-27T14:33:01.852Z,17.37
2018-03-27T14:35:30.897Z,17.27
2018-03-27T14:38:00.586Z,16.67
2018-03-27T14:40:29.738Z,15.73
2018-03-27T14:42:58.710Z,17.97
2018-03-27T14:45:27.660Z,19.17
2018-03-27T14:47:57.239Z,19.53
2018-03-27T14:50:26.294Z,19.80
2018-03-27T14:52:55.217Z,18.97
2018-03-27T14:55:24.288Z,18.23
2018-03-27T14:57:53.531Z,18.57
2018-03-27T15:00:23.042Z,19.70
2018-03-27T15:02:52.035Z,18.83
2018-03-27T15:05:21.298Z,20.60
2018-03-27T15:07:50.205Z,20.57
2018-03-27T15:10:19.204Z,21.77
2018-03-27T15:12:48.096Z,21.13
2018-03-27T15:15:16.963Z,21.73
2018-03-27T15:17:46.123Z,20.30
2018-03-27T15:20:15.025Z,20.10
2018-03-27T15:22:43.927Z,23.60
2018-03-27T15:25:13.088Z,21.80
2018-03-27T15:27:41.977Z,21.97
2018-03-27T15:30:10.972Z,21.67
2018-03-27T15:32:40.252Z,20.70
2018-03-27T15:35:09.384Z,21.70
2018-03-27T15:37:38.238Z,21.13
2018-03-27T15:40:07.195Z,21.30
2018-03-27T15:42:36.198Z,20.60
2018-03-27T15:45:05.353Z,20.37
2018-03-27T15:47:34.230Z,20.57
2018-03-27T15:50:05.228Z,18.97
2018-03-27T15:52:34.161Z,19.67
2018-03-27T15:55:04.522Z,18.67
2018-03-27T15:57:33.403Z,17.47
2018-03-27T16:00:05.299Z,18.97
2018-03-27T16:02:34.981Z,18.30
2018-03-27T16:05:05.945Z,38.03
2018-03-27T16:07:34.878Z,17.43
2018-03-27T16:10:05.059Z,18.53
2018-03-27T16:12:34.007Z,19.67
2018-03-27T16:15:03.551Z,19.53
2018-03-27T16:17:32.771Z,19.00
2018-03-27T16:20:02.564Z,20.30
2018-03-27T16:22:31.548Z,19.97
2018-03-27T16:25:00.859Z,20.07
2018-03-27T16:27:29.762Z,21.70
2018-03-27T16:29:58.625Z,21.10
2018-03-27T16:32:27.832Z,20.77
2018-03-27T16:34:56.746Z,20.97
2018-03-27T16:37:26.171Z,21.43
2018-03-27T16:39:55.373Z,23.33
2018-03-27T16:42:24.299Z,20.83
2018-03-27T16:44:53.249Z,22.00
2018-03-27T16:47:22.947Z,19.13
2018-03-27T16:49:51.866Z,21.40
2018-03-27T16:52:21.261Z,21.00
2018-03-27T16:54:50.494Z,22.17
2018-03-27T16:57:19.450Z,19.73
2018-03-27T16:59:48.376Z,20.33
2018-03-27T17:02:18.729Z,19.13
2018-03-27T17:04:47.825Z,20.60
2018-03-27T17:07:17.593Z,21.57
2018-03-27T17:09:48.079Z,21.97
2018-03-27T17:12:17.163Z,21.80
2018-03-27T17:14:46.086Z,23.37
2018-03-27T17:17:15.433Z,21.60
2018-03-27T17:19:44.467Z,22.80
2018-03-27T17:22:13.447Z,23.77
2018-03-27T17:24:42.667Z,45.93
2018-03-27T17:27:11.951Z,25.10
2018-03-27T17:29:40.870Z,23.27
2018-03-27T17:32:10.076Z,23.67
2018-03-27T17:34:38.978Z,22.63
2018-03-27T17:37:07.944Z,23.60
2018-03-27T17:39:37.190Z,23.80
2018-03-27T17:42:06.173Z,23.63
2018-03-27T17:44:35.077Z,22.57
2018-03-27T17:47:04.494Z,23.83
2018-03-27T17:49:33.424Z,23.67
2018-03-27T17:52:03.145Z,22.77
2018-03-27T17:54:32.383Z,21.80
2018-03-27T18:00:00.760Z,23.47
2018-03-27T18:02:29.730Z,26.70
2018-03-27T18:04:58.639Z,25.67
2018-03-27T18:07:27.860Z,24.30
2018-03-27T18:09:56.819Z,23.20
2018-03-27T18:12:25.758Z,21.90
2018-03-27T18:14:55.113Z,22.80
2018-03-27T18:17:24.216Z,22.53
2018-03-27T18:19:53.193Z,22.97
2018-03-27T18:22:22.596Z,24.20
2018-03-27T18:24:51.613Z,23.30
2018-03-27T18:27:20.657Z,22.27
2018-03-27T18:29:49.674Z,24.60
2018-03-27T18:32:18.985Z,23.03
2018-03-27T18:34:47.975Z,25.27
2018-03-27T18:37:17.250Z,23.73
2018-03-27T18:39:46.215Z,21.90
2018-03-27T18:42:15.152Z,24.07
2018-03-27T18:44:44.124Z,23.60
2018-03-27T18:47:13.258Z,23.80
2018-03-27T18:49:42.620Z,24.10
2018-03-27T18:54:51.626Z,24.03
2018-03-27T18:57:20.832Z,24.67
2018-03-27T18:59:50.217Z,24.13
2018-03-27T19:02:19.328Z,24.40
2018-03-27T19:04:48.437Z,24.03
2018-03-27T19:07:19.564Z,24.30
2018-03-27T19:09:48.470Z,24.67
2018-03-27T19:12:17.455Z,24.60
2018-03-27T19:14:46.849Z,22.77
2018-03-27T19:17:16.011Z,22.87
2018-03-27T19:19:44.976Z,23.67
2018-03-27T19:22:28.755Z,23.10
2018-03-27T19:24:58.017Z,23.03
2018-03-27T19:27:28.766Z,24.83
2018-03-27T19:29:57.776Z,24.80
2018-03-27T19:32:27.241Z,23.97
2018-03-27T19:34:56.229Z,27.43
2018-03-27T19:37:25.284Z,28.57
2018-03-27T19:39:54.254Z,25.53
2018-03-27T19:42:24.889Z,23.63
2018-03-27T19:44:53.877Z,24.60
2018-03-27T19:47:22.785Z,22.20
2018-03-27T19:49:51.987Z,22.60
2018-03-27T19:52:21.169Z,22.73
2018-03-27T19:54:50.145Z,21.47
2018-03-27T19:57:19.446Z,20.90
2018-03-27T19:59:48.455Z,21.43
2018-03-27T20:02:18.044Z,21.07
2018-03-27T20:04:47.281Z,20.70
2018-03-27T20:07:17.057Z,21.30
2018-03-27T20:09:45.981Z,18.90
2018-03-27T20:12:15.556Z,20.77
2018-03-27T20:14:44.483Z,20.30
2018-03-27T20:17:13.625Z,21.93
2018-03-27T20:19:42.994Z,21.10
2018-03-27T20:22:12.157Z,20.63
2018-03-27T20:24:41.097Z,20.17
2018-03-27T20:27:10.341Z,19.37
2018-03-27T20:29:39.285Z,20.90
2018-03-27T20:32:08.221Z,19.03
2018-03-27T20:34:37.465Z,18.43
2018-03-27T20:37:06.534Z,21.33
2018-03-27T20:39:36.167Z,20.27
2018-03-27T20:42:06.293Z,22.13
2018-03-27T20:44:35.263Z,23.10
2018-03-27T20:47:04.264Z,21.53
2018-03-27T20:49:33.636Z,23.20
2018-03-27T20:52:03.327Z,23.80
2018-03-27T20:54:32.396Z,22.80
2018-03-27T20:57:01.886Z,23.50
2018-03-27T20:59:31.295Z,22.87
2018-03-27T21:02:00.952Z,20.20
2018-03-27T21:04:30.926Z,22.83
2018-03-27T21:06:59.981Z,21.50
2018-03-27T21:09:28.913Z,23.03
2018-03-27T21:11:58.364Z,26.13
2018-03-27T21:14:27.309Z,21.90
2018-03-27T21:16:56.311Z,22.77
2018-03-27T21:19:25.720Z,22.20
2018-03-27T21:21:54.888Z,22.50
2018-03-27T21:24:23.970Z,24.10
2018-03-27T21:26:53.219Z,22.67
2018-03-27T21:29:22.232Z,23.67
2018-03-27T21:31:51.317Z,22.97
2018-03-27T21:34:20.936Z,23.40
2018-03-27T21:36:49.981Z,23.93
2018-03-27T21:39:19.033Z,22.47
2018-03-27T21:41:48.857Z,23.90
2018-03-27T21:44:17.989Z,23.90
2018-03-27T21:46:47.052Z,21.60
2018-03-27T21:49:16.281Z,24.33
2018-03-27T21:51:45.282Z,24.60
2018-03-27T21:54:14.293Z,25.50
2018-03-27T21:56:43.554Z,24.23
2018-03-27T22:01:39.733Z,25.27
2018-03-27T22:04:09.199Z,21.30
2018-03-27T22:06:38.157Z,27.20
2018-03-27T22:09:07.491Z,26.97
2018-03-27T22:11:36.841Z,26.83
2018-03-27T22:14:05.962Z,27.90
2018-03-27T22:16:35.542Z,26.83
2018-03-27T22:19:04.890Z,26.83
2018-03-27T22:21:34.111Z,25.97
2018-03-27T22:24:04.034Z,28.63
2018-03-27T22:26:32.930Z,31.03
2018-03-27T22:29:02.563Z,29.00
2018-03-27T22:31:32.522Z,28.23
2018-03-27T22:34:02.312Z,30.57
2018-03-27T22:37:33.863Z,26.87
2018-03-27T22:40:03.581Z,28.27
2018-03-27T22:42:33.340Z,30.47
2018-03-27T22:45:03.507Z,26.13
2018-03-27T22:47:32.510Z,19.70
2018-03-27T22:50:03.548Z,26.30
2018-03-27T22:52:32.674Z,25.10
2018-03-27T22:55:02.001Z,23.10
2018-03-27T22:57:31.573Z,25.93
2018-03-27T23:00:00.516Z,26.40
2018-03-27T23:02:29.476Z,24.60
2018-03-27T23:04:58.805Z,25.07
2018-03-27T23:07:27.723Z,24.77
2018-03-27T23:09:56.711Z,23.97
2018-03-27T23:12:25.649Z,23.77
2018-03-27T23:17:20.153Z,22.80
2018-03-27T23:19:49.516Z,25.87
2018-03-27T23:22:27.736Z,25.30
2018-03-27T23:24:57.203Z,24.73
2018-03-27T23:27:26.128Z,25.40
2018-03-27T23:29:55.052Z,23.90
2018-03-27T23:32:24.280Z,24.90
2018-03-27T23:34:53.274Z,28.07
2018-03-27T23:37:22.177Z,25.07
2018-03-27T23:39:51.467Z,24.40
2018-03-27T23:42:20.451Z,24.97
2018-03-27T23:44:49.318Z,23.37
2018-03-27T23:47:18.538Z,24.70
2018-03-27T23:49:47.502Z,25.67
2018-03-27T23:52:16.398Z,25.13
2018-03-27T23:54:45.313Z,25.03
2018-03-27T23:57:14.288Z,22.13
2018-03-27T23:59:43.641Z,23.20
